Time;durP1;ratioP1;P1;durP2;ratioP2;P2;SDS_P1;SDS_P2;PMS_P1;PMS_P2;Temp;Humidity;BMP_temperature;BMP_pressure;BME280_temperature;BME280_humidity;BME280_pressure;Samples;Min_cycle;Max_cycle;Signal;HPM_P1;HPM_P2
2022/12/22 03:27:26;;;;;;;13.73;11.80;;;;;;;10.76;91.34;99950.31;3608868;39;20098;-63
2022/12/22 03:29:52;;;;;;;14.30;12.80;;;;;;;10.71;90.97;99944.41;3607615;39;20055;-64
2022/12/22 03:32:18;;;;;;;13.30;11.90;;;;;;;10.74;90.89;99949.56;3610085;39;20042;-63
2022/12/22 03:34:43;;;;;;;13.57;12.18;;;;;;;10.74;90.55;99946.88;3606858;39;20491;-64
2022/12/22 03:37:09;;;;;;;14.02;12.38;;;;;;;10.50;90.95;99900.34;3613106;39;20112;-63
2022/12/22 03:39:35;;;;;;;16.02;11.18;;;;;;;10.75;90.37;99945.03;3611320;39;20286;-64
2022/12/22 03:47:31;;;;;;;14.55;12.80;;;;;;;10.72;90.05;99942.56;3607105;39;20328;-63
2022/12/22 03:49:56;;;;;;;16.92;13.57;;;;;;;10.71;90.47;99930.97;3607443;39;20054;-63
2022/12/22 03:52:22;;;;;;;18.02;11.50;;;;;;;10.69;90.04;99932.94;3609896;39;20054;-63
2022/12/22 03:54:48;;;;;;;12.88;11.50;;;;;;;10.49;89.84;99904.03;3608982;39;20051;-62
2022/12/22 03:57:13;;;;;;;16.42;10.50;;;;;;;10.62;90.19;99934.38;3597322;39;20123;-63
2022/12/22 03:59:39;;;;;;;12.00;10.73;;;;;;;10.60;90.76;99937.19;3609620;39;20055;-62
2022/12/22 04:02:05;;;;;;;18.67;14.38;;;;;;;10.60;90.70;99928.28;3609742;39;20635;-63
2022/12/22 04:04:31;;;;;;;33.78;11.77;;;;;;;10.59;90.59;99921.16;3609784;39;20747;-63
2022/12/22 04:06:58;;;;;;;22.30;10.73;;;;;;;10.57;90.30;99917.75;3609635;39;20066;-62
2022/12/22 04:09:25;;;;;;;13.77;10.93;;;;;;;10.54;90.19;99916.16;3606555;39;20326;-63
2022/12/22 04:14:35;;;;;;;13.57;11.80;;;;;;;10.43;89.89;99921.47;3605241;39;20105;-63
2022/12/22 04:17:04;;;;;;;11.65;9.88;;;;;;;10.40;90.28;99917.22;3604776;39;20070;-63
2022/12/22 04:19:31;;;;;;;10.40;9.30;;;;;;;10.40;90.61;99922.59;3604574;39;20056;-63
2022/12/22 04:21:57;;;;;;;10.52;9.43;;;;;;;10.28;90.41;99891.28;3608353;39;20051;-63
2022/12/22 04:24:22;;;;;;;18.98;9.70;;;;;;;10.40;90.57;99914.53;3605350;39;20378;-63
2022/12/22 04:26:49;;;;;;;10.95;9.55;;;;;;;10.39;90.88;99912.78;3608390;39;20379;-63
2022/12/22 04:29:14;;;;;;;11.20;10.10;;;;;;;10.40;90.61;99927.97;3606685;39;20285;-63
2022/12/22 04:31:40;;;;;;;12.23;9.90;;;;;;;10.38;90.60;99921.84;3603977;39;20055;-64
2022/12/22 04:34:06;;;;;;;10.95;9.82;;;;;;;10.39;90.32;99928.06;3606750;39;20055;-64
2022/12/22 04:36:31;;;;;;;11.35;10.25;;;;;;;10.36;90.37;99928.28;3604550;39;20066;-64
2022/12/22 04:38:57;;;;;;;11.70;10.50;;;;;;;10.39;90.62;99931.59;3606777;39;20047;-64
2022/12/22 04:41:23;;;;;;;11.93;10.63;;;;;;;10.40;90.84;99925.28;3606988;39;20122;-65
2022/12/22 04:43:48;;;;;;;11.57;10.45;;;;;;;10.41;90.68;99935.03;3599848;39;20050;-64
2022/12/22 04:46:14;;;;;;;11.80;10.60;;;;;;;10.42;90.86;99934.06;3608675;39;20053;-64
2022/12/22 04:48:40;;;;;;;11.00;9.90;;;;;;;10.42;90.78;99936.75;3606402;39;20063;-64
2022/12/22 04:51:05;;;;;;;12.00;10.80;;;;;;;10.44;90.50;99940.19;3610309;39;20050;-64
2022/12/22 04:53:31;;;;;;;14.38;11.35;;;;;;;10.49;90.77;99930.91;3613467;39;20164;-64
2022/12/22 04:56:02;;;;;;;13.55;11.30;;;;;;;9.87;90.91;99822.72;3610746;39;20058;-64
2022/12/22 04:58:30;;;;;;;12.15;10.85;;;;;;;10.51;90.55;99932.50;3606504;39;20078;-64
2022/12/22 05:00:55;;;;;;;13.82;11.05;;;;;;;10.53;90.73;99932.38;3603802;39;20055;-64
2022/12/22 05:03:22;;;;;;;12.30;10.95;;;;;;;10.52;91.19;99930.66;3604624;39;20461;-64
2022/12/22 05:05:48;;;;;;;12.25;10.95;;;;;;;10.33;91.03;99899.81;3604580;39;20059;-64
2022/12/22 05:08:13;;;;;;;13.30;10.95;;;;;;;10.42;90.71;99915.25;3608011;39;20285;-64
2022/12/22 05:10:39;;;;;;;14.10;12.10;;;;;;;10.43;91.01;99908.03;3609280;39;20051;-64
2022/12/22 05:13:05;;;;;;;17.50;12.65;;;;;;;10.44;91.28;99929.44;3597623;39;20047;-64
2022/12/22 05:15:35;;;;;;;14.35;12.13;;;;;;;10.44;91.00;99924.06;3602393;39;20421;-64
2022/12/22 05:18:02;;;;;;;13.13;11.73;;;;;;;10.43;91.19;99922.34;3606564;39;20057;-63
2022/12/22 05:20:29;;;;;;;14.00;12.43;;;;;;;10.28;90.84;99904.69;3605044;39;20065;-62
2022/12/22 05:22:55;;;;;;;12.45;11.15;;;;;;;10.40;90.85;99927.06;3596965;39;20070;-63
2022/12/22 05:25:21;;;;;;;12.93;11.45;;;;;;;10.14;90.43;99891.41;3607682;39;20057;-63
2022/12/22 05:27:50;;;;;;;14.23;11.48;;;;;;;10.38;90.22;99937.94;3609571;39;20047;-63
2022/12/22 05:30:18;;;;;;;12.25;10.65;;;;;;;10.36;90.80;99947.94;3607150;39;20062;-63
2022/12/22 05:32:44;;;;;;;13.10;11.15;;;;;;;10.30;90.72;99932.28;3607038;39;20054;-63
2022/12/22 05:35:11;;;;;;;16.75;13.35;;;;;;;10.29;91.21;99932.41;3607299;39;20054;-63
2022/12/22 05:37:37;;;;;;;15.52;12.05;;;;;;;10.37;91.57;99943.41;3610133;39;20110;-62
2022/12/22 05:40:03;;;;;;;12.80;11.35;;;;;;;10.38;91.40;99948.69;3612467;39;20397;-63
2022/12/22 05:42:34;;;;;;;15.00;11.40;;;;;;;10.41;91.24;99953.00;3609534;39;20059;-62
2022/12/22 05:45:08;;;;;;;14.82;12.43;;;;;;;10.42;91.26;99957.38;3603321;39;20115;-63
2022/12/22 05:47:34;;;;;;;12.90;11.20;;;;;;;10.42;90.94;99958.22;3609210;39;20378;-63
2022/12/22 05:50:00;;;;;;;13.75;11.23;;;;;;;10.42;91.46;99952.00;3612006;39;20485;-63
2022/12/22 05:52:26;;;;;;;12.77;11.15;;;;;;;10.44;91.52;99960.81;3608639;39;20078;-62
2022/12/22 05:54:52;;;;;;;13.57;10.88;;;;;;;10.45;91.29;99963.38;3603458;39;20046;-63
2022/12/22 05:57:17;;;;;;;12.82;10.65;;;;;;;10.49;91.76;99969.38;3606531;39;20156;-63
2022/12/22 05:59:43;;;;;;;13.70;11.25;;;;;;;10.51;91.00;99974.66;3607444;39;20058;-62
2022/12/22 06:02:08;;;;;;;14.18;11.23;;;;;;;10.52;91.00;99984.41;3608131;39;20050;-62
2022/12/22 06:04:34;;;;;;;13.38;10.98;;;;;;;10.47;90.97;99986.59;3595559;39;20047;-63
2022/12/22 06:07:00;;;;;;;15.57;11.70;;;;;;;10.52;90.97;99998.69;3606330;39;20402;-63
2022/12/22 06:09:25;;;;;;;16.48;11.23;;;;;;;10.52;90.69;100005.91;3603607;39;20047;-63
2022/12/22 06:11:51;;;;;;;16.77;11.30;;;;;;;10.39;91.00;99989.84;3603608;39;20061;-62
2022/12/22 06:14:16;;;;;;;15.77;11.82;;;;;;;10.49;90.57;100009.69;3604104;39;20408;-63
2022/12/22 06:16:42;;;;;;;13.90;10.90;;;;;;;10.46;91.17;100012.59;3606598;39;20074;-63
2022/12/22 06:19:07;;;;;;;14.70;10.98;;;;;;;10.48;91.37;100009.81;3606903;39;20062;-63
2022/12/22 06:21:33;;;;;;;17.33;13.15;;;;;;;10.48;90.88;100025.94;3606158;39;20386;-63
2022/12/22 06:23:59;;;;;;;16.95;13.25;;;;;;;10.44;91.58;100022.63;3606865;39;20063;-63
2022/12/22 06:26:24;;;;;;;16.58;13.48;;;;;;;10.47;91.42;100035.81;3607276;39;20454;-63
2022/12/22 06:28:50;;;;;;;15.98;13.07;;;;;;;10.47;91.78;100035.81;3608763;39;20483;-63
2022/12/22 06:31:15;;;;;;;19.00;14.50;;;;;;;10.47;91.62;100040.34;3611693;39;20063;-63
2022/12/22 06:33:41;;;;;;;22.30;17.10;;;;;;;10.47;92.12;100043.03;3613175;39;20055;-62
2022/12/22 06:36:08;;;;;;;23.40;18.15;;;;;;;10.45;91.51;100043.97;3604452;39;20062;-63
2022/12/22 06:38:34;;;;;;;26.15;19.00;;;;;;;10.45;91.91;100052.03;3605977;39;20147;-63
2022/12/22 06:40:59;;;;;;;27.50;19.75;;;;;;;10.47;91.63;100056.47;3609157;39;20471;-63
2022/12/22 06:43:25;;;;;;;30.70;21.20;;;;;;;10.49;92.01;100062.56;3607310;39;20570;-63
2022/12/22 06:45:51;;;;;;;30.42;20.98;;;;;;;10.48;92.25;100063.53;3611176;39;20058;-63
2022/12/22 06:48:17;;;;;;;31.63;21.67;;;;;;;10.49;92.28;100059.88;3610054;39;20051;-63
2022/12/22 06:50:43;;;;;;;33.60;22.08;;;;;;;10.50;91.78;100066.97;3615024;39;20493;-63
2022/12/22 06:53:10;;;;;;;35.63;21.80;;;;;;;10.52;91.51;100075.78;3614112;39;20047;-63
2022/12/22 06:55:36;;;;;;;36.03;21.77;;;;;;;10.52;91.38;100076.63;3610195;39;20054;-63
2022/12/22 06:58:04;;;;;;;38.28;23.63;;;;;;;10.53;91.69;100077.47;3607018;39;20059;-63
2022/12/22 07:00:30;;;;;;;36.83;22.45;;;;;;;10.53;92.41;100086.44;3599677;39;20460;-63
2022/12/22 07:02:56;;;;;;;38.17;21.38;;;;;;;10.54;91.44;100089.97;3611253;39;20073;-63
2022/12/22 07:05:25;;;;;;;36.05;21.67;;;;;;;10.52;91.75;100091.91;3604648;39;20706;-64
2022/12/22 07:07:52;;;;;;;39.53;21.70;;;;;;;10.53;91.54;100101.66;3605408;39;20055;-63
2022/12/22 07:10:18;;;;;;;36.90;22.00;;;;;;;10.52;91.17;100118.78;3607863;39;20083;-63
2022/12/22 07:12:43;;;;;;;34.45;20.85;;;;;;;10.51;91.49;100120.59;3608005;39;20386;-63
2022/12/22 07:15:09;;;;;;;35.38;20.05;;;;;;;10.53;91.29;100128.53;3608222;39;20059;-63
2022/12/22 07:17:35;;;;;;;34.30;21.10;;;;;;;10.51;91.56;100135.88;3607339;39;20051;-63
2022/12/22 07:20:01;;;;;;;32.55;20.73;;;;;;;10.48;90.73;100130.72;3609352;39;20349;-62
2022/12/22 07:22:26;;;;;;;34.33;20.02;;;;;;;10.49;90.39;100135.13;3607577;39;20324;-63
2022/12/22 07:24:53;;;;;;;31.63;20.23;;;;;;;10.46;90.60;100120.06;3605493;39;20062;-63
2022/12/22 07:27:19;;;;;;;32.20;19.88;;;;;;;10.46;90.84;100125.44;3605706;39;20046;-63
2022/12/22 07:29:45;;;;;;;34.83;21.88;;;;;;;10.45;90.58;100129.97;3607674;39;22309;-63
2022/12/22 07:32:10;;;;;;;32.00;20.80;;;;;;;10.41;90.24;100123.09;3607765;39;20285;-62
2022/12/22 07:34:36;;;;;;;36.95;23.33;;;;;;;10.37;89.32;100127.00;3607794;39;20066;-63
2022/12/22 07:37:01;;;;;;;37.72;25.10;;;;;;;10.26;89.31;100118.84;3608724;39;20058;-63
2022/12/22 07:39:27;;;;;;;35.95;23.15;;;;;;;10.27;89.75;100136.66;3605097;39;20121;-63
2022/12/22 07:44:37;;;;;;;39.20;25.90;;;;;;;10.21;90.36;100142.44;3612461;39;20081;-63
2022/12/22 07:47:02;;;;;;;39.40;25.65;;;;;;;10.22;90.08;100161.13;3607250;39;20057;-63
2022/12/22 07:52:12;;;;;;;38.45;23.05;;;;;;;10.23;90.47;100160.16;3606502;39;20054;-63
2022/12/22 07:54:38;;;;;;;40.90;24.38;;;;;;;10.06;89.98;100138.19;3604306;39;20046;-64
2022/12/22 07:57:03;;;;;;;40.85;24.05;;;;;;;10.23;90.23;100178.13;3611368;39;20055;-62
2022/12/22 07:59:29;;;;;;;40.80;24.92;;;;;;;10.24;90.21;100187.88;3609428;39;20059;-63
2022/12/22 08:01:55;;;;;;;41.80;24.25;;;;;;;10.23;90.22;100204.97;3608983;39;20270;-63
2022/12/22 08:04:21;;;;;;;44.72;25.02;;;;;;;10.24;90.04;100212.06;3607519;39;20066;-63
2022/12/22 08:06:47;;;;;;;45.78;25.90;;;;;;;10.21;89.74;100218.53;3608105;39;20051;-62
2022/12/22 08:09:16;;;;;;;44.40;24.48;;;;;;;10.18;89.15;100218.75;3611399;39;20046;-63
2022/12/22 08:11:42;;;;;;;48.13;25.98;;;;;;;10.20;89.06;100232.91;3597972;39;21223;-63
2022/12/22 08:14:08;;;;;;;47.17;25.80;;;;;;;10.19;89.35;100236.56;3605164;39;20058;-62
2022/12/22 08:16:34;;;;;;;47.75;26.35;;;;;;;10.19;89.34;100236.56;3608766;39;20408;-63
2022/12/22 08:18:59;;;;;;;44.15;24.98;;;;;;;10.18;88.98;100240.22;3607995;39;20106;-62
2022/12/22 08:21:25;;;;;;;44.70;24.45;;;;;;;10.19;88.70;100239.25;3606579;39;20073;-63
2022/12/22 08:23:51;;;;;;;40.90;23.63;;;;;;;10.14;88.00;100238.69;3608002;39;20065;-62
2022/12/22 08:26:25;;;;;;;53.30;28.52;;;;;;;10.23;88.05;100253.31;3609832;39;20047;-62
2022/12/22 08:29:06;;;;;;;45.35;25.48;;;;;;;10.09;88.10;100218.53;3605768;39;20063;-62
2022/12/22 08:31:33;;;;;;;44.10;26.15;;;;;;;10.26;88.00;100249.56;3607805;39;20079;-63
2022/12/22 08:34:05;;;;;;;46.28;26.55;;;;;;;10.25;87.62;100256.78;3605881;39;20061;-65
2022/12/22 08:36:39;;;;;;;44.17;24.52;;;;;;;10.24;86.99;100265.78;3610983;39;20094;-64
2022/12/22 08:39:05;;;;;;;41.22;23.05;;;;;;;10.22;86.77;100271.28;3609211;39;20350;-63
2022/12/22 08:41:50;;;;;;;36.10;21.80;;;;;;;10.22;85.75;100289.22;3609478;39;20058;-64
2022/12/22 08:44:28;;;;;;;36.72;21.27;;;;;;;10.23;85.48;100296.28;3612642;39;20085;-63
2022/12/22 08:46:58;;;;;;;42.72;24.63;;;;;;;10.25;85.86;100305.13;3608680;39;20115;-63
2022/12/22 08:49:25;;;;;;;40.03;23.73;;;;;;;10.24;85.34;100319.50;3606112;39;21983;-64
2022/12/22 08:51:53;;;;;;;42.03;25.90;;;;;;;10.27;86.39;100324.69;3605371;39;20062;-65
2022/12/22 08:54:19;;;;;;;47.47;28.48;;;;;;;10.28;86.24;100337.19;3598486;39;20090;-64
2022/12/22 08:56:45;;;;;;;55.30;30.95;;;;;;;10.28;85.98;100337.19;3609848;39;20112;-63
2022/12/22 08:59:13;;;;;;;49.60;30.55;;;;;;;10.27;86.31;100335.44;3608874;39;20047;-64
2022/12/22 09:01:46;;;;;;;48.95;28.98;;;;;;;10.22;86.17;100329.50;3607888;39;20058;-63
2022/12/22 09:04:14;;;;;;;61.47;34.92;;;;;;;10.17;85.96;100331.63;3604842;39;20063;-64
2022/12/22 09:06:40;;;;;;;45.25;27.38;;;;;;;10.09;86.34;100342.06;3605406;39;20059;-63
2022/12/22 09:09:10;;;;;;;45.63;27.33;;;;;;;10.05;86.23;100340.53;3607183;39;20110;-62
2022/12/22 09:11:37;;;;;;;44.42;25.38;;;;;;;9.99;86.24;100341.81;3608316;39;20058;-64
2022/12/22 09:14:04;;;;;;;44.63;24.45;;;;;;;9.93;85.90;100337.72;3604657;39;20304;-62
2022/12/22 09:16:32;;;;;;;44.65;25.08;;;;;;;9.89;86.07;100340.69;3611564;39;20379;-63
2022/12/22 09:18:59;;;;;;;41.72;24.40;;;;;;;9.85;86.50;100339.19;3609711;39;20047;-62
2022/12/22 09:21:26;;;;;;;40.83;23.90;;;;;;;9.76;86.63;100335.28;3608122;39;20067;-63
2022/12/22 09:23:54;;;;;;;41.25;22.23;;;;;;;9.68;86.85;100340.31;3609250;39;20066;-63
2022/12/22 09:26:23;;;;;;;44.60;24.65;;;;;;;9.74;87.30;100350.63;3610346;39;20110;-65
2022/12/22 09:28:49;;;;;;;42.03;24.10;;;;;;;9.75;88.18;100349.66;3609091;39;20055;-63
2022/12/22 09:31:16;;;;;;;40.10;23.75;;;;;;;9.79;87.79;100356.53;3605060;39;20094;-65
2022/12/22 09:33:42;;;;;;;44.97;24.38;;;;;;;9.78;87.23;100360.19;3602866;39;20290;-66
2022/12/22 09:36:14;;;;;;;45.47;23.98;;;;;;;9.79;87.43;100356.53;3607631;39;20066;-65
2022/12/22 09:38:42;;;;;;;46.60;25.80;;;;;;;9.81;87.15;100367.19;3609876;39;20051;-66
2022/12/22 09:41:33;;;;;;;45.60;26.73;;;;;;;9.84;88.04;100367.84;3604293;39;20059;-65
2022/12/22 09:44:25;;;;;;;45.55;26.80;;;;;;;9.93;88.33;100369.06;3606046;39;20047;-63
2022/12/22 09:46:57;;;;;;;47.40;26.83;;;;;;;10.02;87.35;100383.69;3605771;39;20063;-63
2022/12/22 09:49:23;;;;;;;45.00;26.65;;;;;;;9.80;87.31;100346.66;3607381;39;20339;-66
2022/12/22 09:51:59;;;;;;;43.03;25.85;;;;;;;10.06;87.31;100395.97;3607107;39;20063;-64
2022/12/22 09:54:27;;;;;;;47.42;27.42;;;;;;;9.92;86.77;100367.31;3606389;39;20292;-66
2022/12/22 09:56:52;;;;;;;44.85;27.75;;;;;;;10.01;86.37;100393.56;3608875;39;20077;-64
2022/12/22 09:59:20;;;;;;;44.45;26.17;;;;;;;9.88;86.89;100361.31;3607903;39;20063;-64
2022/12/22 10:02:14;;;;;;;40.08;25.15;;;;;;;10.10;86.75;100397.47;3606468;39;20067;-66
2022/12/22 10:04:56;;;;;;;39.73;25.03;;;;;;;10.19;86.41;100397.72;3609276;39;20410;-64
2022/12/22 10:07:41;;;;;;;41.30;25.17;;;;;;;10.30;86.47;100404.22;3609509;39;20260;-65
2022/12/22 10:10:30;;;;;;;37.97;22.85;;;;;;;10.36;86.55;100407.34;3605161;39;20071;-65
2022/12/22 10:13:03;;;;;;;33.08;20.60;;;;;;;10.41;85.68;100407.06;3608646;39;20123;-65
2022/12/22 10:15:40;;;;;;;31.73;18.98;;;;;;;10.42;85.91;100420.38;3609230;39;20083;-65
2022/12/22 10:18:20;;;;;;;26.60;17.02;;;;;;;10.47;85.43;100419.22;3609771;39;20706;-65
2022/12/22 10:21:10;;;;;;;28.27;16.35;;;;;;;10.52;84.39;100417.91;3608503;39;20058;-65
2022/12/22 10:23:45;;;;;;;28.13;15.82;;;;;;;10.59;83.93;100418.34;3596023;39;20067;-65
2022/12/22 10:26:23;;;;;;;25.95;15.70;;;;;;;10.63;83.00;100414.53;3607051;39;20309;-65
2022/12/22 10:29:14;;;;;;;26.55;14.45;;;;;;;10.60;82.23;100412.03;3598453;39;20054;-65
2022/12/22 10:32:01;;;;;;;24.33;14.05;;;;;;;10.56;82.34;100410.50;3608970;39;20057;-65
2022/12/22 10:34:28;;;;;;;22.08;13.52;;;;;;;10.55;81.87;100414.16;3608250;39;20648;-65
2022/12/22 10:37:03;;;;;;;22.90;13.98;;;;;;;10.58;81.37;100419.34;3614175;39;20063;-65
2022/12/22 10:39:37;;;;;;;20.55;12.82;;;;;;;10.65;81.63;100420.63;3606140;39;20099;-65
2022/12/22 10:42:12;;;;;;;;;;;;;;;10.71;81.27;100425.59;3608628;39;20426;-64
2022/12/22 10:44:46;;;;;;;21.25;13.00;;;;;;;10.75;81.48;100424.44;3606381;39;20270;-65
2022/12/22 10:47:22;;;;;;;25.38;14.65;;;;;;;10.82;80.88;100427.56;3609115;39;20339;-64
2022/12/22 10:49:59;;;;;;;22.17;13.88;;;;;;;10.87;80.77;100418.19;3610109;39;20114;-65
2022/12/22 10:52:31;;;;;;;22.58;13.45;;;;;;;10.92;80.01;100426.78;3614240;39;20050;-64
2022/12/22 10:55:28;;;;;;;21.02;12.90;;;;;;;10.98;79.93;100424.66;3608908;39;20058;-65
2022/12/22 10:58:20;;;;;;;18.95;11.02;;;;;;;11.31;79.12;100440.22;3610429;39;20091;-65
2022/12/22 11:01:03;;;;;;;18.92;12.63;;;;;;;11.49;78.11;100438.91;3607690;39;20289;-65
2022/12/22 11:03:30;;;;;;;18.35;10.57;;;;;;;11.38;77.09;100447.78;3608699;39;20070;-65
2022/12/22 11:05:59;;;;;;;18.50;10.50;;;;;;;11.26;77.28;100450.44;3603379;39;20055;-64
2022/12/22 11:08:25;;;;;;;22.52;11.50;;;;;;;11.17;78.15;100449.28;3606432;39;20103;-65
2022/12/22 11:11:04;;;;;;;19.05;11.25;;;;;;;11.06;77.71;100454.53;3606392;39;20078;-65
2022/12/22 11:13:55;;;;;;;21.00;13.18;;;;;;;11.02;78.34;100461.13;3606973;39;20051;-65
2022/12/22 11:16:44;;;;;;;21.90;15.18;;;;;;;10.92;77.30;100456.38;3610544;39;20062;-64
2022/12/22 11:19:37;;;;;;;22.83;16.05;;;;;;;10.81;77.83;100453.56;3606349;39;20055;-65
2022/12/22 11:22:28;;;;;;;29.67;17.77;;;;;;;10.77;78.27;100452.03;3607306;39;20294;-64
2022/12/22 11:25:33;;;;;;;25.90;17.27;;;;;;;10.78;79.08;100448.38;3606446;39;20123;-64
2022/12/22 11:28:14;;;;;;;27.75;17.83;;;;;;;10.86;78.24;100451.41;3606389;39;20059;-65
2022/12/22 11:31:05;;;;;;;26.85;17.17;;;;;;;10.85;77.97;100452.41;3605811;39;20059;-64
2022/12/22 11:33:43;;;;;;;26.15;17.77;;;;;;;10.77;78.84;100452.03;3607208;39;20051;-65
2022/12/22 11:36:33;;;;;;;31.83;19.35;;;;;;;10.62;79.15;100431.59;3605780;39;20054;-65
2022/12/22 11:39:19;;;;;;;31.92;19.23;;;;;;;10.85;78.63;100459.59;3609509;39;20057;-64
2022/12/22 11:42:05;;;;;;;27.42;18.13;;;;;;;10.87;78.35;100453.13;3607697;39;20131;-64
2022/12/22 11:45:30;;;;;;;29.17;18.88;;;;;;;10.85;79.15;100467.69;3606977;39;20078;-65
2022/12/22 11:48:54;;;;;;;26.65;18.17;;;;;;;10.83;78.55;100465.06;3596838;39;20066;-64
2022/12/22 11:51:46;;;;;;;27.97;19.10;;;;;;;10.81;78.65;100469.69;3606088;39;20090;-65
2022/12/22 11:54:39;;;;;;;25.45;18.50;;;;;;;10.89;78.57;100470.03;3605719;39;20063;-64
2022/12/22 11:57:59;;;;;;;27.80;18.30;;;;;;;10.95;77.44;100462.53;3607397;39;20861;-65
2022/12/22 12:00:39;;;;;;;23.85;17.13;;;;;;;10.92;77.40;100459.06;3608997;39;20049;-65
2022/12/22 12:03:41;;;;;;;25.55;15.93;;;;;;;10.89;77.35;100456.59;3606580;39;20047;-65
2022/12/22 12:06:27;;;;;;;24.48;14.80;;;;;;;10.82;75.90;100443.69;3608168;39;20397;-64
2022/12/22 12:09:07;;;;;;;20.52;13.75;;;;;;;10.75;76.15;100454.00;3608350;39;20128;-64
2022/12/22 12:11:52;;;;;;;21.20;13.90;;;;;;;10.73;76.94;100447.84;3609275;39;20055;-65
2022/12/22 12:15:25;;;;;;;19.80;13.77;;;;;;;10.70;76.74;100440.00;3609339;39;20054;-64
2022/12/22 12:18:25;;;;;;;18.50;13.05;;;;;;;10.68;76.93;100428.47;3584568;39;20098;-64
2022/12/22 12:21:22;;;;;;;23.77;14.60;;;;;;;10.65;77.27;100434.91;3607732;39;20044;-64
2022/12/22 12:24:20;;;;;;;19.20;13.30;;;;;;;10.65;76.67;100415.25;3605703;39;20301;-64
2022/12/22 12:27:27;;;;;;;18.10;13.65;;;;;;;10.65;76.92;100420.63;3606868;39;20124;-64
2022/12/22 12:30:11;;;;;;;18.65;12.98;;;;;;;10.63;77.27;100414.53;3604538;39;20401;-65
2022/12/22 12:32:52;;;;;;;19.52;13.18;;;;;;;10.72;77.13;100404.94;3609449;39;20059;-64
2022/12/22 12:35:53;;;;;;;18.17;12.40;;;;;;;10.73;77.22;100412.91;3609020;39;20134;-65
2022/12/22 12:38:44;;;;;;;18.77;12.35;;;;;;;10.74;76.93;100411.94;3609629;39;20418;-64
2022/12/22 12:41:37;;;;;;;17.02;12.30;;;;;;;10.84;77.45;100404.09;3612732;39;20059;-65
2022/12/22 12:44:09;;;;;;;19.92;13.50;;;;;;;10.83;76.79;100419.38;3610268;39;20062;-64
2022/12/22 12:46:44;;;;;;;21.27;13.70;;;;;;;10.84;77.42;100407.63;3606641;39;20075;-64
2022/12/22 12:49:37;;;;;;;19.25;13.25;;;;;;;10.84;77.20;100410.31;3605582;39;20484;-64
2022/12/22 12:52:05;;;;;;;20.48;14.18;;;;;;;10.84;77.73;100404.94;3607326;39;20105;-65
2022/12/22 12:54:31;;;;;;;22.25;14.63;;;;;;;10.84;77.40;100410.31;3605631;39;20061;-64
2022/12/22 12:57:10;;;;;;;24.67;14.80;;;;;;;10.84;76.68;100415.69;3608216;39;20067;-64
2022/12/22 12:59:39;;;;;;;26.67;15.55;;;;;;;10.89;77.17;100401.94;3607543;39;20058;-64
2022/12/22 13:02:27;;;;;;;22.17;15.98;;;;;;;10.88;76.66;100402.94;3607230;39;20051;-64
2022/12/22 13:05:14;;;;;;;21.10;15.88;;;;;;;10.89;76.92;100408.19;3605581;39;20062;-64
2022/12/22 13:08:17;;;;;;;25.88;15.70;;;;;;;10.84;77.21;100410.31;3605300;39;20113;-64
2022/12/22 13:10:45;;;;;;;22.15;16.48;;;;;;;10.80;77.84;100408.81;3607738;39;20098;-64
2022/12/22 13:13:32;;;;;;;25.83;17.00;;;;;;;10.78;78.06;100405.38;3608879;39;20389;-64
2022/12/22 13:16:00;;;;;;;23.27;16.30;;;;;;;10.78;77.90;100412.56;3599223;39;20132;-64
2022/12/22 13:18:29;;;;;;;26.45;17.85;;;;;;;10.75;78.62;100412.78;3606690;39;20047;-64
2022/12/22 13:20:54;;;;;;;22.33;16.50;;;;;;;10.68;78.03;100401.59;3608236;39;20046;-64
2022/12/22 13:23:22;;;;;;;22.25;15.73;;;;;;;10.69;77.82;100411.41;3606780;39;20070;-64
2022/12/22 13:25:57;;;;;;;19.42;13.70;;;;;;;10.64;77.41;100413.53;3607174;39;20371;-64
2022/12/22 13:28:26;;;;;;;16.83;12.63;;;;;;;10.60;76.37;100415.59;3607072;39;20132;-64
2022/12/22 13:31:18;;;;;;;14.45;10.75;;;;;;;10.57;75.95;100412.25;3606256;39;20118;-64
2022/12/22 13:33:51;;;;;;;16.25;10.48;;;;;;;10.50;75.75;100395.69;3605849;39;20119;-64
2022/12/22 13:36:27;;;;;;;14.68;10.85;;;;;;;10.57;75.72;100396.97;3607288;39;20063;-64
2022/12/22 13:39:11;;;;;;;12.95;9.00;;;;;;;10.57;75.07;100402.34;3608605;39;20062;-63
2022/12/22 13:41:43;;;;;;;12.77;9.43;;;;;;;10.61;75.36;100394.94;3608963;39;20050;-64
2022/12/22 13:44:18;;;;;;;13.85;9.88;;;;;;;10.61;75.24;100376.97;3606119;39;20372;-64
2022/12/22 13:46:44;;;;;;;12.38;9.20;;;;;;;10.55;75.67;100377.41;3609469;39;20061;-64
2022/12/22 13:49:18;;;;;;;13.10;9.57;;;;;;;10.64;75.65;100376.75;3608971;39;20478;-64
2022/12/22 13:51:46;;;;;;;13.18;8.93;;;;;;;10.63;75.54;100374.19;3607129;39;20061;-64
2022/12/22 13:54:36;;;;;;;10.55;9.07;;;;;;;10.63;75.86;100375.06;3606320;39;20048;-64
2022/12/22 13:57:14;;;;;;;12.70;10.55;;;;;;;10.65;75.67;100365.03;3607114;39;20065;-64
2022/12/22 13:59:44;;;;;;;16.30;11.48;;;;;;;10.66;76.24;100369.47;3607773;39;20120;-64
2022/12/22 14:02:10;;;;;;;16.50;11.40;;;;;;;10.64;76.39;100367.84;3609284;39;20152;-64
2022/12/22 14:04:39;;;;;;;15.65;10.88;;;;;;;10.65;77.04;100364.19;3608205;39;20053;-64
2022/12/22 14:07:15;;;;;;;16.23;11.38;;;;;;;10.59;76.52;100352.06;3607343;39;20053;-64
2022/12/22 14:09:53;;;;;;;14.93;10.50;;;;;;;10.62;77.03;100359.00;3606322;39;20054;-63
2022/12/22 14:12:37;;;;;;;13.30;10.25;;;;;;;10.59;77.04;100354.75;3609989;39;20055;-64
2022/12/22 14:15:13;;;;;;;12.65;9.20;;;;;;;10.55;77.38;100355.03;3609366;39;20084;-64
2022/12/22 14:17:39;;;;;;;13.45;9.35;;;;;;;10.52;77.42;100356.09;3608900;39;20047;-65
2022/12/22 14:20:34;;;;;;;12.27;8.32;;;;;;;10.51;77.56;100348.16;3609389;39;20065;-64
2022/12/22 14:23:23;;;;;;;15.38;9.63;;;;;;;10.48;78.12;100343.00;3603437;39;20393;-64
2022/12/22 14:25:54;;;;;;;11.38;8.68;;;;;;;10.43;78.67;100330.75;3609012;39;20059;-64
2022/12/22 14:28:28;;;;;;;11.48;9.30;;;;;;;10.40;78.56;100333.66;3610110;39;20063;-66
2022/12/22 14:30:58;;;;;;;11.25;8.95;;;;;;;10.38;79.76;100330.19;3606419;39;20109;-66
2022/12/22 14:33:27;;;;;;;13.93;9.10;;;;;;;10.34;79.27;100323.31;3606077;39;20460;-65
2022/12/22 14:36:16;;;;;;;14.48;9.65;;;;;;;10.25;81.03;100326.63;3606340;39;20059;-65
2022/12/22 14:38:52;;;;;;;13.65;8.63;;;;;;;10.21;81.59;100320.59;3607777;39;20127;-65
2022/12/22 14:41:40;;;;;;;12.50;9.02;;;;;;;10.15;81.73;100318.31;3609936;39;20062;-65
2022/12/22 14:44:40;;;;;;;13.45;9.63;;;;;;;10.14;82.18;100313.03;3608972;39;20086;-64
2022/12/22 14:47:18;;;;;;;16.15;9.98;;;;;;;10.12;82.48;100315.00;3597955;39;20062;-65
2022/12/22 14:49:48;;;;;;;16.98;10.68;;;;;;;10.08;82.81;100308.09;3608278;39;20065;-65
2022/12/22 14:52:43;;;;;;;12.45;9.43;;;;;;;10.04;83.65;100301.22;3609482;39;20704;-65
2022/12/22 14:55:40;;;;;;;13.30;10.07;;;;;;;10.03;84.58;100310.25;3609451;39;20348;-66
2022/12/22 14:58:11;;;;;;;13.52;9.90;;;;;;;9.96;84.44;100297.22;3609285;39;20055;-67
2022/12/22 15:00:44;;;;;;;14.10;9.57;;;;;;;9.93;84.49;100293.91;3608521;39;20046;-65
2022/12/22 15:03:37;;;;;;;13.10;9.50;;;;;;;9.85;85.31;100286.34;3598099;39;20128;-65
2022/12/22 15:06:35;;;;;;;15.40;11.07;;;;;;;9.85;85.63;100291.72;3608001;39;20355;-65
2022/12/22 15:09:05;;;;;;;15.40;10.85;;;;;;;9.84;86.58;100295.38;3606769;39;20050;-65
2022/12/22 15:11:34;;;;;;;16.00;11.77;;;;;;;9.85;86.55;100296.22;3607812;39;20135;-64
2022/12/22 15:14:01;;;;;;;15.13;11.30;;;;;;;9.85;87.17;100288.19;3607559;39;20046;-65
2022/12/22 15:16:27;;;;;;;16.38;11.18;;;;;;;9.84;86.97;100279.25;3609343;39;20085;-65
2022/12/22 15:18:52;;;;;;;17.65;12.60;;;;;;;9.85;86.97;100272.06;3608707;39;20067;-66
2022/12/22 15:21:20;;;;;;;18.20;12.43;;;;;;;9.85;86.75;100280.97;3608745;39;20051;-65
2022/12/22 15:23:45;;;;;;;15.02;11.15;;;;;;;9.81;87.22;100273.25;3608080;39;20057;-65